Redington, Nebraska
Current Conditions -  °F | °C
As of 8:53 AM on Tuesday 21 Oct 2014 (Local Time) from KAIA Reporting Station
Clear Clear  
Wind Chill: 54°   Ceiling: Unl
Heat Index: 54°   Visibility: 10mi
Dew Point: 48°   Wind: 9mph
Humidity: 80%   Direction: 170°S
Pressure: 29.97"   Gusts: NA
Location:  41.7379°N, 102.935°W
Report Text: KAIA 211453Z AUTO 17008KT 10SM CLR 12/09 A2997 RMK AO2 SLP132 T01220089 55000
Loading
Personal Weather Stations






























Interactive Weather Map
Tropical Storm Tracking
New forecast layout! Learn more

10-Day Weather Forecast

Advertisements
Track Severe Weather on mobile